sensor_id;sensor_type;location;lat;lon;timestamp;P1;durP1;ratioP1;P2;durP2;ratioP2
76714;SDS011;65644;44.990;20.288;2023-11-21T00:01:54;70.03;;;51.50;;
76714;SDS011;65644;44.990;20.288;2023-11-21T00:04:20;74.38;;;51.88;;
76714;SDS011;65644;44.990;20.288;2023-11-21T00:06:46;77.07;;;54.63;;
76714;SDS011;65644;44.990;20.288;2023-11-21T00:09:12;73.47;;;55.33;;
76714;SDS011;65644;44.990;20.288;2023-11-21T00:11:40;85.97;;;59.95;;
76714;SDS011;65644;44.990;20.288;2023-11-21T00:14:06;96.70;;;72.25;;
76714;SDS011;65644;44.990;20.288;2023-11-21T00:16:33;100.13;;;79.57;;
76714;SDS011;65644;44.990;20.288;2023-11-21T00:18:59;106.05;;;85.47;;
76714;SDS011;65644;44.990;20.288;2023-11-21T00:21:25;108.43;;;86.40;;
76714;SDS011;65644;44.990;20.288;2023-11-21T00:23:51;103.72;;;81.50;;
76714;SDS011;65644;44.990;20.288;2023-11-21T00:26:17;99.70;;;79.95;;
76714;SDS011;65644;44.990;20.288;2023-11-21T00:28:43;89.07;;;70.13;;
76714;SDS011;65644;44.990;20.288;2023-11-21T00:31:10;82.88;;;67.68;;
76714;SDS011;65644;44.990;20.288;2023-11-21T00:33:36;80.70;;;66.70;;
76714;SDS011;65644;44.990;20.288;2023-11-21T00:36:02;84.03;;;69.65;;
76714;SDS011;65644;44.990;20.288;2023-11-21T00:38:28;96.38;;;76.55;;
76714;SDS011;65644;44.990;20.288;2023-11-21T00:40:55;91.47;;;75.63;;
76714;SDS011;65644;44.990;20.288;2023-11-21T00:43:22;93.00;;;74.95;;
76714;SDS011;65644;44.990;20.288;2023-11-21T00:45:48;89.47;;;70.22;;
76714;SDS011;65644;44.990;20.288;2023-11-21T00:48:15;84.43;;;67.53;;
76714;SDS011;65644;44.990;20.288;2023-11-21T00:50:41;81.80;;;66.97;;
76714;SDS011;65644;44.990;20.288;2023-11-21T00:53:07;84.03;;;64.40;;
76714;SDS011;65644;44.990;20.288;2023-11-21T00:55:33;76.50;;;61.15;;
76714;SDS011;65644;44.990;20.288;2023-11-21T00:57:59;77.47;;;57.95;;
76714;SDS011;65644;44.990;20.288;2023-11-21T01:00:28;74.53;;;57.75;;
76714;SDS011;65644;44.990;20.288;2023-11-21T01:02:54;74.07;;;54.00;;
76714;SDS011;65644;44.990;20.288;2023-11-21T01:05:21;69.70;;;53.05;;
76714;SDS011;65644;44.990;20.288;2023-11-21T01:07:47;65.15;;;50.03;;
76714;SDS011;65644;44.990;20.288;2023-11-21T01:10:13;64.25;;;49.25;;
76714;SDS011;65644;44.990;20.288;2023-11-21T01:12:39;61.47;;;48.13;;
76714;SDS011;65644;44.990;20.288;2023-11-21T01:15:06;66.10;;;48.78;;
76714;SDS011;65644;44.990;20.288;2023-11-21T01:17:33;63.35;;;47.85;;
76714;SDS011;65644;44.990;20.288;2023-11-21T01:19:59;62.45;;;47.35;;
76714;SDS011;65644;44.990;20.288;2023-11-21T01:22:25;65.57;;;47.75;;
76714;SDS011;65644;44.990;20.288;2023-11-21T01:24:52;64.07;;;46.97;;
76714;SDS011;65644;44.990;20.288;2023-11-21T01:27:18;65.65;;;46.38;;
76714;SDS011;65644;44.990;20.288;2023-11-21T01:29:44;57.20;;;45.63;;
76714;SDS011;65644;44.990;20.288;2023-11-21T01:32:10;59.70;;;45.28;;
76714;SDS011;65644;44.990;20.288;2023-11-21T01:34:37;59.05;;;45.03;;
76714;SDS011;65644;44.990;20.288;2023-11-21T01:37:03;66.57;;;47.08;;
76714;SDS011;65644;44.990;20.288;2023-11-21T01:39:30;61.33;;;46.08;;
76714;SDS011;65644;44.990;20.288;2023-11-21T01:41:57;58.35;;;44.83;;
76714;SDS011;65644;44.990;20.288;2023-11-21T01:44:26;63.15;;;45.95;;
76714;SDS011;65644;44.990;20.288;2023-11-21T01:46:52;67.50;;;43.92;;
76714;SDS011;65644;44.990;20.288;2023-11-21T01:49:19;61.35;;;43.75;;
76714;SDS011;65644;44.990;20.288;2023-11-21T01:51:46;67.43;;;45.85;;
76714;SDS011;65644;44.990;20.288;2023-11-21T01:54:17;66.32;;;44.67;;
76714;SDS011;65644;44.990;20.288;2023-11-21T01:56:46;65.75;;;44.00;;
76714;SDS011;65644;44.990;20.288;2023-11-21T01:59:14;63.88;;;45.15;;
76714;SDS011;65644;44.990;20.288;2023-11-21T02:01:43;57.42;;;42.63;;
76714;SDS011;65644;44.990;20.288;2023-11-21T02:04:11;59.40;;;43.60;;
76714;SDS011;65644;44.990;20.288;2023-11-21T02:06:37;57.38;;;42.30;;
76714;SDS011;65644;44.990;20.288;2023-11-21T02:09:04;56.65;;;41.42;;
76714;SDS011;65644;44.990;20.288;2023-11-21T02:11:30;55.08;;;41.03;;
76714;SDS011;65644;44.990;20.288;2023-11-21T02:13:59;57.00;;;41.90;;
76714;SDS011;65644;44.990;20.288;2023-11-21T02:16:26;54.97;;;40.35;;
76714;SDS011;65644;44.990;20.288;2023-11-21T02:18:52;55.28;;;43.05;;
76714;SDS011;65644;44.990;20.288;2023-11-21T02:21:19;55.33;;;41.90;;
76714;SDS011;65644;44.990;20.288;2023-11-21T02:23:45;54.10;;;40.25;;
76714;SDS011;65644;44.990;20.288;2023-11-21T02:26:12;55.55;;;41.83;;
76714;SDS011;65644;44.990;20.288;2023-11-21T02:28:38;54.35;;;40.60;;
76714;SDS011;65644;44.990;20.288;2023-11-21T02:31:05;54.92;;;40.47;;
76714;SDS011;65644;44.990;20.288;2023-11-21T02:33:33;55.35;;;40.92;;
76714;SDS011;65644;44.990;20.288;2023-11-21T02:36:02;54.15;;;39.83;;
76714;SDS011;65644;44.990;20.288;2023-11-21T02:38:28;54.13;;;40.15;;
76714;SDS011;65644;44.990;20.288;2023-11-21T02:40:54;53.08;;;39.53;;
76714;SDS011;65644;44.990;20.288;2023-11-21T02:43:20;56.25;;;40.65;;
76714;SDS011;65644;44.990;20.288;2023-11-21T02:45:46;53.90;;;40.35;;
76714;SDS011;65644;44.990;20.288;2023-11-21T02:48:12;55.70;;;41.42;;
76714;SDS011;65644;44.990;20.288;2023-11-21T02:50:38;51.08;;;40.50;;
76714;SDS011;65644;44.990;20.288;2023-11-21T02:53:04;51.15;;;39.95;;
76714;SDS011;65644;44.990;20.288;2023-11-21T02:55:31;56.55;;;41.83;;
76714;SDS011;65644;44.990;20.288;2023-11-21T02:57:59;52.58;;;39.53;;
76714;SDS011;65644;44.990;20.288;2023-11-21T03:00:25;54.58;;;39.90;;
76714;SDS011;65644;44.990;20.288;2023-11-21T03:02:51;56.45;;;40.13;;
76714;SDS011;65644;44.990;20.288;2023-11-21T03:05:18;53.00;;;40.92;;
76714;SDS011;65644;44.990;20.288;2023-11-21T03:07:44;50.42;;;38.95;;
76714;SDS011;65644;44.990;20.288;2023-11-21T03:10:10;52.47;;;39.38;;
76714;SDS011;65644;44.990;20.288;2023-11-21T03:12:36;51.28;;;40.15;;
76714;SDS011;65644;44.990;20.288;2023-11-21T03:15:03;49.88;;;38.63;;
76714;SDS011;65644;44.990;20.288;2023-11-21T03:17:31;51.88;;;38.22;;
76714;SDS011;65644;44.990;20.288;2023-11-21T03:19:58;53.60;;;39.67;;
76714;SDS011;65644;44.990;20.288;2023-11-21T03:22:24;52.58;;;39.28;;
76714;SDS011;65644;44.990;20.288;2023-11-21T03:24:51;53.45;;;39.95;;
76714;SDS011;65644;44.990;20.288;2023-11-21T03:27:17;54.72;;;39.83;;
76714;SDS011;65644;44.990;20.288;2023-11-21T03:29:44;55.78;;;39.20;;
76714;SDS011;65644;44.990;20.288;2023-11-21T03:32:11;51.28;;;39.42;;
76714;SDS011;65644;44.990;20.288;2023-11-21T03:34:52;50.53;;;38.20;;
76714;SDS011;65644;44.990;20.288;2023-11-21T03:37:18;51.92;;;39.05;;
76714;SDS011;65644;44.990;20.288;2023-11-21T03:39:45;51.33;;;38.33;;
76714;SDS011;65644;44.990;20.288;2023-11-21T03:42:12;50.97;;;39.13;;
76714;SDS011;65644;44.990;20.288;2023-11-21T03:44:38;54.72;;;37.35;;
76714;SDS011;65644;44.990;20.288;2023-11-21T03:47:04;52.72;;;38.95;;
76714;SDS011;65644;44.990;20.288;2023-11-21T03:49:30;47.60;;;37.08;;
76714;SDS011;65644;44.990;20.288;2023-11-21T03:51:56;50.50;;;38.13;;
76714;SDS011;65644;44.990;20.288;2023-11-21T03:54:22;52.70;;;37.97;;
76714;SDS011;65644;44.990;20.288;2023-11-21T03:56:48;51.70;;;37.45;;
76714;SDS011;65644;44.990;20.288;2023-11-21T03:59:14;50.85;;;39.38;;
76714;SDS011;65644;44.990;20.288;2023-11-21T04:01:40;46.22;;;36.92;;
76714;SDS011;65644;44.990;20.288;2023-11-21T04:04:06;50.33;;;38.10;;
76714;SDS011;65644;44.990;20.288;2023-11-21T04:06:33;52.53;;;37.92;;
76714;SDS011;65644;44.990;20.288;2023-11-21T04:08:59;48.80;;;36.60;;
76714;SDS011;65644;44.990;20.288;2023-11-21T04:11:25;53.35;;;38.50;;
76714;SDS011;65644;44.990;20.288;2023-11-21T04:13:51;51.58;;;38.40;;
76714;SDS011;65644;44.990;20.288;2023-11-21T04:16:17;51.33;;;37.80;;
76714;SDS011;65644;44.990;20.288;2023-11-21T04:18:43;50.33;;;38.55;;
76714;SDS011;65644;44.990;20.288;2023-11-21T04:21:09;49.58;;;36.78;;
76714;SDS011;65644;44.990;20.288;2023-11-21T04:23:35;48.88;;;36.97;;
76714;SDS011;65644;44.990;20.288;2023-11-21T04:26:01;49.95;;;37.83;;
76714;SDS011;65644;44.990;20.288;2023-11-21T04:28:28;46.05;;;36.00;;
76714;SDS011;65644;44.990;20.288;2023-11-21T04:30:54;48.97;;;37.42;;
76714;SDS011;65644;44.990;20.288;2023-11-21T04:33:20;49.03;;;37.22;;
76714;SDS011;65644;44.990;20.288;2023-11-21T04:35:47;49.25;;;37.50;;
76714;SDS011;65644;44.990;20.288;2023-11-21T04:38:13;48.95;;;37.30;;
76714;SDS011;65644;44.990;20.288;2023-11-21T04:40:40;50.35;;;38.05;;
76714;SDS011;65644;44.990;20.288;2023-11-21T04:43:06;50.20;;;37.38;;
76714;SDS011;65644;44.990;20.288;2023-11-21T04:45:32;50.67;;;37.55;;
76714;SDS011;65644;44.990;20.288;2023-11-21T04:47:58;48.53;;;37.65;;
76714;SDS011;65644;44.990;20.288;2023-11-21T04:50:24;49.28;;;36.70;;
76714;SDS011;65644;44.990;20.288;2023-11-21T04:52:52;44.97;;;35.55;;
76714;SDS011;65644;44.990;20.288;2023-11-21T04:55:18;46.17;;;36.33;;
76714;SDS011;65644;44.990;20.288;2023-11-21T04:57:44;48.95;;;36.45;;
76714;SDS011;65644;44.990;20.288;2023-11-21T05:00:12;46.50;;;34.60;;
76714;SDS011;65644;44.990;20.288;2023-11-21T05:02:39;50.05;;;37.70;;
76714;SDS011;65644;44.990;20.288;2023-11-21T05:05:06;50.40;;;36.15;;
76714;SDS011;65644;44.990;20.288;2023-11-21T05:07:35;48.90;;;36.53;;
76714;SDS011;65644;44.990;20.288;2023-11-21T05:10:01;48.03;;;35.90;;
76714;SDS011;65644;44.990;20.288;2023-11-21T05:12:33;48.63;;;36.35;;
76714;SDS011;65644;44.990;20.288;2023-11-21T05:15:03;48.25;;;35.35;;
76714;SDS011;65644;44.990;20.288;2023-11-21T05:17:33;50.15;;;37.17;;
76714;SDS011;65644;44.990;20.288;2023-11-21T05:20:00;45.30;;;34.72;;
76714;SDS011;65644;44.990;20.288;2023-11-21T05:22:28;44.30;;;34.90;;
76714;SDS011;65644;44.990;20.288;2023-11-21T05:24:54;47.13;;;35.80;;
76714;SDS011;65644;44.990;20.288;2023-11-21T05:27:20;45.97;;;35.13;;
76714;SDS011;65644;44.990;20.288;2023-11-21T05:29:46;48.20;;;35.15;;
76714;SDS011;65644;44.990;20.288;2023-11-21T05:32:12;50.67;;;34.72;;
76714;SDS011;65644;44.990;20.288;2023-11-21T05:34:39;44.85;;;34.10;;
76714;SDS011;65644;44.990;20.288;2023-11-21T05:37:05;46.95;;;34.20;;
76714;SDS011;65644;44.990;20.288;2023-11-21T05:39:31;45.53;;;33.70;;
76714;SDS011;65644;44.990;20.288;2023-11-21T05:41:57;43.70;;;34.90;;
76714;SDS011;65644;44.990;20.288;2023-11-21T05:44:25;41.88;;;31.83;;
76714;SDS011;65644;44.990;20.288;2023-11-21T05:46:51;44.63;;;34.22;;
76714;SDS011;65644;44.990;20.288;2023-11-21T05:49:17;46.78;;;34.30;;
76714;SDS011;65644;44.990;20.288;2023-11-21T05:51:46;45.20;;;34.38;;
76714;SDS011;65644;44.990;20.288;2023-11-21T05:54:12;47.97;;;32.95;;
76714;SDS011;65644;44.990;20.288;2023-11-21T05:56:38;46.42;;;33.38;;
76714;SDS011;65644;44.990;20.288;2023-11-21T05:59:04;43.22;;;33.30;;
76714;SDS011;65644;44.990;20.288;2023-11-21T06:01:31;43.35;;;32.38;;
76714;SDS011;65644;44.990;20.288;2023-11-21T06:03:57;40.30;;;32.38;;
76714;SDS011;65644;44.990;20.288;2023-11-21T06:06:24;45.67;;;32.78;;
76714;SDS011;65644;44.990;20.288;2023-11-21T06:08:50;42.92;;;32.10;;
76714;SDS011;65644;44.990;20.288;2023-11-21T06:11:17;40.50;;;31.80;;
76714;SDS011;65644;44.990;20.288;2023-11-21T06:13:43;41.78;;;31.65;;
76714;SDS011;65644;44.990;20.288;2023-11-21T06:16:09;42.58;;;31.50;;
76714;SDS011;65644;44.990;20.288;2023-11-21T06:18:38;41.97;;;30.58;;
76714;SDS011;65644;44.990;20.288;2023-11-21T06:21:05;44.53;;;30.73;;
76714;SDS011;65644;44.990;20.288;2023-11-21T06:23:31;37.40;;;29.60;;
76714;SDS011;65644;44.990;20.288;2023-11-21T06:25:57;38.08;;;30.08;;
76714;SDS011;65644;44.990;20.288;2023-11-21T06:28:23;38.92;;;29.13;;
76714;SDS011;65644;44.990;20.288;2023-11-21T06:30:49;41.30;;;30.92;;
76714;SDS011;65644;44.990;20.288;2023-11-21T06:33:15;41.97;;;32.35;;
76714;SDS011;65644;44.990;20.288;2023-11-21T06:35:41;40.28;;;30.95;;
76714;SDS011;65644;44.990;20.288;2023-11-21T06:38:07;43.30;;;31.33;;
76714;SDS011;65644;44.990;20.288;2023-11-21T06:40:34;45.75;;;34.47;;
76714;SDS011;65644;44.990;20.288;2023-11-21T06:43:00;45.35;;;33.30;;
76714;SDS011;65644;44.990;20.288;2023-11-21T06:45:26;46.72;;;33.80;;
76714;SDS011;65644;44.990;20.288;2023-11-21T06:47:52;47.75;;;34.17;;
76714;SDS011;65644;44.990;20.288;2023-11-21T06:50:18;39.65;;;31.20;;
76714;SDS011;65644;44.990;20.288;2023-11-21T06:52:45;38.38;;;29.63;;
76714;SDS011;65644;44.990;20.288;2023-11-21T06:55:11;38.33;;;29.63;;
76714;SDS011;65644;44.990;20.288;2023-11-21T06:57:37;42.42;;;31.27;;
76714;SDS011;65644;44.990;20.288;2023-11-21T07:00:03;39.42;;;28.92;;
76714;SDS011;65644;44.990;20.288;2023-11-21T07:02:30;38.17;;;28.67;;
76714;SDS011;65644;44.990;20.288;2023-11-21T07:04:56;39.83;;;27.38;;
76714;SDS011;65644;44.990;20.288;2023-11-21T07:07:22;38.17;;;28.38;;
76714;SDS011;65644;44.990;20.288;2023-11-21T07:09:48;34.58;;;27.55;;
76714;SDS011;65644;44.990;20.288;2023-11-21T07:12:14;35.15;;;28.30;;
76714;SDS011;65644;44.990;20.288;2023-11-21T07:14:40;37.55;;;28.83;;
76714;SDS011;65644;44.990;20.288;2023-11-21T07:17:08;33.83;;;27.00;;
76714;SDS011;65644;44.990;20.288;2023-11-21T07:19:34;34.72;;;27.27;;
76714;SDS011;65644;44.990;20.288;2023-11-21T07:22:00;40.58;;;31.45;;
76714;SDS011;65644;44.990;20.288;2023-11-21T07:24:26;38.15;;;29.58;;
76714;SDS011;65644;44.990;20.288;2023-11-21T07:26:52;35.58;;;27.40;;
76714;SDS011;65644;44.990;20.288;2023-11-21T07:29:21;34.22;;;25.85;;
76714;SDS011;65644;44.990;20.288;2023-11-21T07:31:47;31.38;;;24.25;;
76714;SDS011;65644;44.990;20.288;2023-11-21T07:34:15;34.53;;;26.77;;
76714;SDS011;65644;44.990;20.288;2023-11-21T07:36:41;34.35;;;26.90;;
76714;SDS011;65644;44.990;20.288;2023-11-21T07:39:07;34.83;;;26.05;;
76714;SDS011;65644;44.990;20.288;2023-11-21T07:41:33;32.58;;;25.70;;
76714;SDS011;65644;44.990;20.288;2023-11-21T07:43:59;37.30;;;25.63;;
76714;SDS011;65644;44.990;20.288;2023-11-21T07:46:26;32.05;;;24.77;;
76714;SDS011;65644;44.990;20.288;2023-11-21T07:48:52;34.15;;;26.20;;
76714;SDS011;65644;44.990;20.288;2023-11-21T07:51:18;35.85;;;25.95;;
76714;SDS011;65644;44.990;20.288;2023-11-21T07:53:44;34.13;;;26.30;;
76714;SDS011;65644;44.990;20.288;2023-11-21T07:56:10;33.60;;;25.60;;
76714;SDS011;65644;44.990;20.288;2023-11-21T07:58:37;33.65;;;25.80;;
76714;SDS011;65644;44.990;20.288;2023-11-21T08:01:04;32.50;;;26.15;;
76714;SDS011;65644;44.990;20.288;2023-11-21T08:03:30;33.42;;;25.67;;
76714;SDS011;65644;44.990;20.288;2023-11-21T08:05:59;41.60;;;28.30;;
76714;SDS011;65644;44.990;20.288;2023-11-21T08:08:25;38.95;;;28.88;;
76714;SDS011;65644;44.990;20.288;2023-11-21T08:10:52;46.60;;;33.92;;
76714;SDS011;65644;44.990;20.288;2023-11-21T08:13:25;35.17;;;26.25;;
76714;SDS011;65644;44.990;20.288;2023-11-21T08:15:53;69.95;;;39.22;;
76714;SDS011;65644;44.990;20.288;2023-11-21T08:18:20;46.53;;;30.40;;
76714;SDS011;65644;44.990;20.288;2023-11-21T08:20:47;75.18;;;40.97;;
76714;SDS011;65644;44.990;20.288;2023-11-21T08:23:14;74.93;;;43.60;;
76714;SDS011;65644;44.990;20.288;2023-11-21T08:25:41;35.97;;;27.90;;
76714;SDS011;65644;44.990;20.288;2023-11-21T08:28:07;37.42;;;27.17;;
76714;SDS011;65644;44.990;20.288;2023-11-21T08:30:33;57.38;;;36.15;;
76714;SDS011;65644;44.990;20.288;2023-11-21T08:33:00;37.38;;;27.55;;
76714;SDS011;65644;44.990;20.288;2023-11-21T08:35:26;37.80;;;28.15;;
76714;SDS011;65644;44.990;20.288;2023-11-21T08:37:52;44.05;;;29.55;;
76714;SDS011;65644;44.990;20.288;2023-11-21T08:40:18;39.65;;;28.52;;
76714;SDS011;65644;44.990;20.288;2023-11-21T08:42:46;40.13;;;28.15;;
76714;SDS011;65644;44.990;20.288;2023-11-21T08:45:13;33.05;;;26.30;;
76714;SDS011;65644;44.990;20.288;2023-11-21T08:47:39;35.10;;;26.60;;
76714;SDS011;65644;44.990;20.288;2023-11-21T08:50:06;34.88;;;26.95;;
76714;SDS011;65644;44.990;20.288;2023-11-21T08:52:33;31.48;;;26.27;;
76714;SDS011;65644;44.990;20.288;2023-11-21T08:54:59;35.05;;;27.27;;
76714;SDS011;65644;44.990;20.288;2023-11-21T08:57:32;34.83;;;27.13;;
76714;SDS011;65644;44.990;20.288;2023-11-21T08:59:58;34.03;;;25.73;;
76714;SDS011;65644;44.990;20.288;2023-11-21T09:02:27;33.97;;;25.50;;
76714;SDS011;65644;44.990;20.288;2023-11-21T09:04:53;43.78;;;29.10;;
76714;SDS011;65644;44.990;20.288;2023-11-21T09:07:20;42.42;;;29.70;;
76714;SDS011;65644;44.990;20.288;2023-11-21T09:09:49;33.28;;;26.33;;
76714;SDS011;65644;44.990;20.288;2023-11-21T09:12:15;35.08;;;25.42;;
76714;SDS011;65644;44.990;20.288;2023-11-21T09:14:45;31.33;;;24.63;;
76714;SDS011;65644;44.990;20.288;2023-11-21T09:17:11;33.50;;;24.83;;
76714;SDS011;65644;44.990;20.288;2023-11-21T09:19:37;29.13;;;24.23;;
76714;SDS011;65644;44.990;20.288;2023-11-21T09:22:04;31.52;;;24.58;;
76714;SDS011;65644;44.990;20.288;2023-11-21T09:24:33;32.53;;;24.75;;
76714;SDS011;65644;44.990;20.288;2023-11-21T09:27:00;30.77;;;23.63;;
76714;SDS011;65644;44.990;20.288;2023-11-21T09:29:29;31.48;;;22.52;;
76714;SDS011;65644;44.990;20.288;2023-11-21T09:31:55;31.00;;;23.17;;
76714;SDS011;65644;44.990;20.288;2023-11-21T09:34:24;32.90;;;22.50;;
76714;SDS011;65644;44.990;20.288;2023-11-21T09:36:50;27.77;;;22.25;;
76714;SDS011;65644;44.990;20.288;2023-11-21T09:39:16;30.10;;;22.08;;
76714;SDS011;65644;44.990;20.288;2023-11-21T09:41:52;27.95;;;22.42;;
76714;SDS011;65644;44.990;20.288;2023-11-21T09:44:22;28.17;;;22.02;;
76714;SDS011;65644;44.990;20.288;2023-11-21T09:46:53;28.95;;;21.95;;
76714;SDS011;65644;44.990;20.288;2023-11-21T09:49:21;26.23;;;20.20;;
76714;SDS011;65644;44.990;20.288;2023-11-21T09:51:50;25.85;;;20.85;;
76714;SDS011;65644;44.990;20.288;2023-11-21T09:54:17;27.15;;;19.88;;
76714;SDS011;65644;44.990;20.288;2023-11-21T09:56:44;27.17;;;21.50;;
76714;SDS011;65644;44.990;20.288;2023-11-21T09:59:12;30.50;;;21.95;;
76714;SDS011;65644;44.990;20.288;2023-11-21T10:01:38;33.33;;;21.65;;
76714;SDS011;65644;44.990;20.288;2023-11-21T10:04:06;28.10;;;22.13;;
76714;SDS011;65644;44.990;20.288;2023-11-21T10:06:37;33.72;;;21.45;;
76714;SDS011;65644;44.990;20.288;2023-11-21T10:09:04;42.15;;;23.67;;
76714;SDS011;65644;44.990;20.288;2023-11-21T10:11:36;31.10;;;22.60;;
76714;SDS011;65644;44.990;20.288;2023-11-21T10:14:03;32.15;;;22.17;;
76714;SDS011;65644;44.990;20.288;2023-11-21T10:16:30;31.13;;;24.33;;
76714;SDS011;65644;44.990;20.288;2023-11-21T10:18:57;32.47;;;21.60;;
76714;SDS011;65644;44.990;20.288;2023-11-21T10:21:24;36.10;;;23.92;;
76714;SDS011;65644;44.990;20.288;2023-11-21T10:23:51;33.20;;;22.42;;
76714;SDS011;65644;44.990;20.288;2023-11-21T10:26:18;44.67;;;22.48;;
76714;SDS011;65644;44.990;20.288;2023-11-21T10:28:58;39.38;;;20.80;;
76714;SDS011;65644;44.990;20.288;2023-11-21T10:31:26;23.67;;;19.35;;
76714;SDS011;65644;44.990;20.288;2023-11-21T10:33:52;26.30;;;20.42;;
76714;SDS011;65644;44.990;20.288;2023-11-21T10:36:25;30.83;;;20.90;;
76714;SDS011;65644;44.990;20.288;2023-11-21T10:38:52;25.02;;;19.27;;
76714;SDS011;65644;44.990;20.288;2023-11-21T10:41:18;27.35;;;20.88;;
76714;SDS011;65644;44.990;20.288;2023-11-21T10:43:45;29.50;;;20.88;;
76714;SDS011;65644;44.990;20.288;2023-11-21T10:46:11;29.30;;;21.80;;
76714;SDS011;65644;44.990;20.288;2023-11-21T10:48:37;24.73;;;19.70;;
76714;SDS011;65644;44.990;20.288;2023-11-21T10:51:06;23.63;;;19.23;;
76714;SDS011;65644;44.990;20.288;2023-11-21T10:53:33;26.33;;;18.40;;
76714;SDS011;65644;44.990;20.288;2023-11-21T10:56:03;22.08;;;18.33;;
76714;SDS011;65644;44.990;20.288;2023-11-21T10:58:32;25.40;;;18.60;;
76714;SDS011;65644;44.990;20.288;2023-11-21T11:00:58;23.10;;;18.42;;
76714;SDS011;65644;44.990;20.288;2023-11-21T11:03:25;29.00;;;18.27;;
76714;SDS011;65644;44.990;20.288;2023-11-21T11:05:51;26.52;;;17.60;;
76714;SDS011;65644;44.990;20.288;2023-11-21T11:08:20;26.45;;;19.02;;
76714;SDS011;65644;44.990;20.288;2023-11-21T11:10:51;23.77;;;18.83;;
76714;SDS011;65644;44.990;20.288;2023-11-21T11:13:17;21.65;;;16.95;;
76714;SDS011;65644;44.990;20.288;2023-11-21T11:15:47;23.20;;;17.23;;
76714;SDS011;65644;44.990;20.288;2023-11-21T11:18:13;28.67;;;18.77;;
76714;SDS011;65644;44.990;20.288;2023-11-21T11:20:41;27.73;;;18.83;;
76714;SDS011;65644;44.990;20.288;2023-11-21T11:25:53;24.50;;;17.88;;
76714;SDS011;65644;44.990;20.288;2023-11-21T11:28:22;26.88;;;19.75;;
76714;SDS011;65644;44.990;20.288;2023-11-21T11:33:34;27.20;;;18.77;;
76714;SDS011;65644;44.990;20.288;2023-11-21T11:38:46;26.90;;;19.27;;
76714;SDS011;65644;44.990;20.288;2023-11-21T11:41:24;22.25;;;16.55;;
76714;SDS011;65644;44.990;20.288;2023-11-21T11:43:50;22.95;;;17.05;;
76714;SDS011;65644;44.990;20.288;2023-11-21T11:46:16;27.63;;;17.67;;
76714;SDS011;65644;44.990;20.288;2023-11-21T11:48:42;21.67;;;17.38;;
76714;SDS011;65644;44.990;20.288;2023-11-21T11:51:13;23.50;;;17.48;;
76714;SDS011;65644;44.990;20.288;2023-11-21T11:53:42;23.70;;;17.20;;
76714;SDS011;65644;44.990;20.288;2023-11-21T11:56:25;22.85;;;16.42;;
76714;SDS011;65644;44.990;20.288;2023-11-21T11:58:52;24.00;;;16.80;;
76714;SDS011;65644;44.990;20.288;2023-11-21T12:01:19;24.95;;;18.45;;
76714;SDS011;65644;44.990;20.288;2023-11-21T12:04:21;23.95;;;19.20;;
76714;SDS011;65644;44.990;20.288;2023-11-21T12:06:34;24.70;;;19.67;;
76714;SDS011;65644;44.990;20.288;2023-11-21T12:09:01;29.45;;;21.30;;
76714;SDS011;65644;44.990;20.288;2023-11-21T12:11:33;27.20;;;20.80;;
76714;SDS011;65644;44.990;20.288;2023-11-21T12:14:01;26.17;;;19.48;;
76714;SDS011;65644;44.990;20.288;2023-11-21T12:16:27;21.50;;;18.42;;
76714;SDS011;65644;44.990;20.288;2023-11-21T12:18:53;24.67;;;18.67;;
76714;SDS011;65644;44.990;20.288;2023-11-21T12:21:20;24.30;;;18.48;;
76714;SDS011;65644;44.990;20.288;2023-11-21T12:23:46;26.05;;;19.05;;
76714;SDS011;65644;44.990;20.288;2023-11-21T12:26:13;24.80;;;20.13;;
76714;SDS011;65644;44.990;20.288;2023-11-21T12:28:39;26.50;;;20.40;;
76714;SDS011;65644;44.990;20.288;2023-11-21T12:31:05;25.05;;;20.52;;
76714;SDS011;65644;44.990;20.288;2023-11-21T12:33:34;23.33;;;19.40;;
76714;SDS011;65644;44.990;20.288;2023-11-21T12:36:01;24.75;;;20.55;;
76714;SDS011;65644;44.990;20.288;2023-11-21T12:38:36;22.85;;;20.13;;
76714;SDS011;65644;44.990;20.288;2023-11-21T12:41:02;24.55;;;18.77;;
76714;SDS011;65644;44.990;20.288;2023-11-21T12:43:28;22.35;;;18.33;;
76714;SDS011;65644;44.990;20.288;2023-11-21T12:46:06;25.02;;;18.00;;
76714;SDS011;65644;44.990;20.288;2023-11-21T12:48:34;24.55;;;19.25;;
76714;SDS011;65644;44.990;20.288;2023-11-21T12:51:04;24.45;;;20.70;;
76714;SDS011;65644;44.990;20.288;2023-11-21T12:53:30;28.48;;;22.48;;
76714;SDS011;65644;44.990;20.288;2023-11-21T12:56:02;28.15;;;22.83;;
76714;SDS011;65644;44.990;20.288;2023-11-21T12:58:28;26.42;;;21.20;;
76714;SDS011;65644;44.990;20.288;2023-11-21T13:00:54;27.80;;;20.85;;
76714;SDS011;65644;44.990;20.288;2023-11-21T13:03:24;29.27;;;22.63;;
76714;SDS011;65644;44.990;20.288;2023-11-21T13:05:52;28.92;;;21.70;;
76714;SDS011;65644;44.990;20.288;2023-11-21T13:08:20;29.00;;;21.33;;
76714;SDS011;65644;44.990;20.288;2023-11-21T13:10:51;27.50;;;21.42;;
76714;SDS011;65644;44.990;20.288;2023-11-21T13:13:19;27.52;;;20.90;;
76714;SDS011;65644;44.990;20.288;2023-11-21T13:15:55;29.73;;;21.15;;
76714;SDS011;65644;44.990;20.288;2023-11-21T13:18:22;23.05;;;18.88;;
76714;SDS011;65644;44.990;20.288;2023-11-21T13:20:48;23.92;;;18.58;;
76714;SDS011;65644;44.990;20.288;2023-11-21T13:23:15;23.10;;;18.30;;
76714;SDS011;65644;44.990;20.288;2023-11-21T13:25:42;21.95;;;18.23;;
76714;SDS011;65644;44.990;20.288;2023-11-21T13:28:10;24.58;;;18.73;;
76714;SDS011;65644;44.990;20.288;2023-11-21T13:30:36;24.38;;;17.52;;
76714;SDS011;65644;44.990;20.288;2023-11-21T13:33:04;29.73;;;20.45;;
76714;SDS011;65644;44.990;20.288;2023-11-21T13:35:34;25.70;;;18.77;;
76714;SDS011;65644;44.990;20.288;2023-11-21T13:38:08;28.75;;;22.60;;
76714;SDS011;65644;44.990;20.288;2023-11-21T13:40:35;32.90;;;25.77;;
76714;SDS011;65644;44.990;20.288;2023-11-21T13:43:11;34.05;;;28.42;;
76714;SDS011;65644;44.990;20.288;2023-11-21T13:45:38;33.47;;;26.05;;
76714;SDS011;65644;44.990;20.288;2023-11-21T13:48:04;29.08;;;23.73;;
76714;SDS011;65644;44.990;20.288;2023-11-21T13:50:35;28.30;;;22.90;;
76714;SDS011;65644;44.990;20.288;2023-11-21T13:53:01;24.35;;;21.58;;
76714;SDS011;65644;44.990;20.288;2023-11-21T13:55:41;26.42;;;22.17;;
76714;SDS011;65644;44.990;20.288;2023-11-21T13:58:07;34.20;;;25.52;;
76714;SDS011;65644;44.990;20.288;2023-11-21T14:03:13;37.00;;;26.48;;
76714;SDS011;65644;44.990;20.288;2023-11-21T14:05:47;31.20;;;24.80;;
76714;SDS011;65644;44.990;20.288;2023-11-21T14:08:18;31.15;;;24.08;;
76714;SDS011;65644;44.990;20.288;2023-11-21T14:10:46;32.83;;;24.38;;
76714;SDS011;65644;44.990;20.288;2023-11-21T14:13:18;28.70;;;22.20;;
76714;SDS011;65644;44.990;20.288;2023-11-21T14:15:48;28.77;;;20.85;;
76714;SDS011;65644;44.990;20.288;2023-11-21T14:18:19;25.90;;;20.33;;
76714;SDS011;65644;44.990;20.288;2023-11-21T14:20:52;25.23;;;19.48;;